sensor_id;sensor_type;location;lat;lon;timestamp;pressure;altitude;pressure_sealevel;temperature;humidity
47811;BME280;33575;52.600;7.318;2022-12-16T00:02:02;100795.88;;;-2.18;91.20
47811;BME280;33575;52.600;7.318;2022-12-16T00:04:32;100795.92;;;-2.12;90.63
47811;BME280;33575;52.600;7.318;2022-12-16T00:07:02;100799.02;;;-2.14;90.71
47811;BME280;33575;52.600;7.318;2022-12-16T00:09:33;100800.46;;;-2.11;90.70
47811;BME280;33575;52.600;7.318;2022-12-16T00:12:04;100804.67;;;-2.05;90.40
47811;BME280;33575;52.600;7.318;2022-12-16T00:14:34;100807.28;;;-1.99;90.52
47811;BME280;33575;52.600;7.318;2022-12-16T00:17:04;100803.66;;;-1.91;89.99
47811;BME280;33575;52.600;7.318;2022-12-16T00:19:35;100803.72;;;-1.83;90.08
47811;BME280;33575;52.600;7.318;2022-12-16T00:22:06;100806.81;;;-1.79;89.75
47811;BME280;33575;52.600;7.318;2022-12-16T00:24:36;100807.10;;;-1.80;89.74
47811;BME280;33575;52.600;7.318;2022-12-16T00:27:06;100810.61;;;-1.79;89.61
47811;BME280;33575;52.600;7.318;2022-12-16T00:29:36;100815.21;;;-1.77;89.73
47811;BME280;33575;52.600;7.318;2022-12-16T00:32:07;100818.15;;;-1.75;89.55
47811;BME280;33575;52.600;7.318;2022-12-16T00:34:37;100818.58;;;-1.75;89.71
47811;BME280;33575;52.600;7.318;2022-12-16T00:37:07;100821.05;;;-1.67;89.45
47811;BME280;33575;52.600;7.318;2022-12-16T00:39:37;100819.52;;;-1.59;89.06
47811;BME280;33575;52.600;7.318;2022-12-16T00:42:08;100813.56;;;-1.52;88.93
47811;BME280;33575;52.600;7.318;2022-12-16T00:44:38;100816.87;;;-1.44;88.48
47811;BME280;33575;52.600;7.318;2022-12-16T00:47:09;100820.70;;;-1.44;89.42
47811;BME280;33575;52.600;7.318;2022-12-16T00:49:39;100821.00;;;-1.40;87.88
47811;BME280;33575;52.600;7.318;2022-12-16T00:52:09;100824.73;;;-1.34;88.81
47811;BME280;33575;52.600;7.318;2022-12-16T00:54:40;100823.75;;;-1.36;87.99
47811;BME280;33575;52.600;7.318;2022-12-16T00:57:10;100820.77;;;-1.36;89.45
47811;BME280;33575;52.600;7.318;2022-12-16T00:59:41;100818.96;;;-1.30;89.68
47811;BME280;33575;52.600;7.318;2022-12-16T01:02:12;100818.23;;;-1.25;90.04
47811;BME280;33575;52.600;7.318;2022-12-16T01:04:42;100819.27;;;-1.10;100.00
47811;BME280;33575;52.600;7.318;2022-12-16T01:07:13;100818.49;;;-1.02;94.54
47811;BME280;33575;52.600;7.318;2022-12-16T01:09:43;100819.42;;;-1.06;90.98
47811;BME280;33575;52.600;7.318;2022-12-16T01:12:13;100822.01;;;-1.20;89.38
47811;BME280;33575;52.600;7.318;2022-12-16T01:14:44;100822.82;;;-1.39;88.08
47811;BME280;33575;52.600;7.318;2022-12-16T01:17:15;100822.59;;;-1.52;87.64
47811;BME280;33575;52.600;7.318;2022-12-16T01:19:45;100824.48;;;-1.63;88.48
47811;BME280;33575;52.600;7.318;2022-12-16T01:22:15;100830.31;;;-1.73;88.43
47811;BME280;33575;52.600;7.318;2022-12-16T01:24:46;100834.10;;;-1.74;88.65
47811;BME280;33575;52.600;7.318;2022-12-16T01:27:16;100836.42;;;-1.77;88.68
47811;BME280;33575;52.600;7.318;2022-12-16T01:29:46;100834.76;;;-1.77;89.01
47811;BME280;33575;52.600;7.318;2022-12-16T01:32:17;100836.53;;;-1.80;89.30
47811;BME280;33575;52.600;7.318;2022-12-16T01:34:53;100839.27;;;-1.73;89.47
47811;BME280;33575;52.600;7.318;2022-12-16T01:37:18;100835.11;;;-1.65;89.48
47811;BME280;33575;52.600;7.318;2022-12-16T01:39:48;100838.88;;;-1.58;89.77
47811;BME280;33575;52.600;7.318;2022-12-16T01:42:20;100838.18;;;-1.54;89.30
47811;BME280;33575;52.600;7.318;2022-12-16T01:44:50;100840.98;;;-1.54;89.48
47811;BME280;33575;52.600;7.318;2022-12-16T01:47:23;100843.77;;;-1.53;89.71
47811;BME280;33575;52.600;7.318;2022-12-16T01:49:56;100847.81;;;-1.52;89.53
47811;BME280;33575;52.600;7.318;2022-12-16T01:52:25;100850.92;;;-1.54;89.67
47811;BME280;33575;52.600;7.318;2022-12-16T01:54:54;100847.57;;;-1.53;89.60
47811;BME280;33575;52.600;7.318;2022-12-16T01:57:26;100853.43;;;-1.55;89.77
47811;BME280;33575;52.600;7.318;2022-12-16T01:59:53;100853.68;;;-1.51;89.63
47811;BME280;33575;52.600;7.318;2022-12-16T02:02:23;100859.17;;;-1.49;89.41
47811;BME280;33575;52.600;7.318;2022-12-16T02:04:55;100860.55;;;-1.49;88.78
47811;BME280;33575;52.600;7.318;2022-12-16T02:07:23;100862.83;;;-1.44;88.09
47811;BME280;33575;52.600;7.318;2022-12-16T02:09:55;100863.63;;;-1.42;89.06
47811;BME280;33575;52.600;7.318;2022-12-16T02:12:29;100863.70;;;-1.35;89.27
47811;BME280;33575;52.600;7.318;2022-12-16T02:15:06;100862.47;;;-1.33;89.22
47811;BME280;33575;52.600;7.318;2022-12-16T02:17:30;100861.56;;;-1.28;88.60
47811;BME280;33575;52.600;7.318;2022-12-16T02:22:33;100866.86;;;-1.17;88.60
47811;BME280;33575;52.600;7.318;2022-12-16T02:25:16;100868.68;;;-1.11;88.62
47811;BME280;33575;52.600;7.318;2022-12-16T02:30:06;100871.73;;;-1.04;88.59
47811;BME280;33575;52.600;7.318;2022-12-16T02:32:31;100866.87;;;-0.97;88.83
47811;BME280;33575;52.600;7.318;2022-12-16T02:35:03;100868.53;;;-0.94;89.23
47811;BME280;33575;52.600;7.318;2022-12-16T02:37:34;100870.19;;;-0.87;89.47
47811;BME280;33575;52.600;7.318;2022-12-16T02:40:00;100870.76;;;-0.80;89.77
47811;BME280;33575;52.600;7.318;2022-12-16T02:42:31;100875.77;;;-0.62;95.93
47811;BME280;33575;52.600;7.318;2022-12-16T02:45:03;100875.75;;;-0.65;91.04
47811;BME280;33575;52.600;7.318;2022-12-16T02:47:31;100873.84;;;-0.86;88.31
47811;BME280;33575;52.600;7.318;2022-12-16T02:50:01;100876.25;;;-0.98;88.30
47811;BME280;33575;52.600;7.318;2022-12-16T02:52:33;100874.14;;;-1.18;87.17
47811;BME280;33575;52.600;7.318;2022-12-16T02:55:05;100873.99;;;-1.30;87.28
47811;BME280;33575;52.600;7.318;2022-12-16T02:57:44;100876.19;;;-1.39;88.87
47811;BME280;33575;52.600;7.318;2022-12-16T03:00:05;100875.16;;;-1.46;89.51
47811;BME280;33575;52.600;7.318;2022-12-16T03:02:41;100875.33;;;-1.51;89.47
47811;BME280;33575;52.600;7.318;2022-12-16T03:05:07;100877.25;;;-1.58;89.13
47811;BME280;33575;52.600;7.318;2022-12-16T03:07:35;100877.15;;;-1.65;88.17
47811;BME280;33575;52.600;7.318;2022-12-16T03:10:08;100882.08;;;-1.67;89.62
47811;BME280;33575;52.600;7.318;2022-12-16T03:12:37;100883.87;;;-1.62;89.69
47811;BME280;33575;52.600;7.318;2022-12-16T03:15:07;100882.10;;;-1.56;90.23
47811;BME280;33575;52.600;7.318;2022-12-16T03:17:37;100886.35;;;-1.46;89.44
47811;BME280;33575;52.600;7.318;2022-12-16T03:20:11;100885.34;;;-1.40;89.41
47811;BME280;33575;52.600;7.318;2022-12-16T03:22:39;100891.64;;;-1.37;90.08
47811;BME280;33575;52.600;7.318;2022-12-16T03:25:08;100895.60;;;-1.35;90.25
47811;BME280;33575;52.600;7.318;2022-12-16T03:27:42;100892.80;;;-1.30;90.05
47811;BME280;33575;52.600;7.318;2022-12-16T03:30:11;100892.16;;;-1.27;90.01
47811;BME280;33575;52.600;7.318;2022-12-16T03:32:43;100894.23;;;-1.23;89.83
47811;BME280;33575;52.600;7.318;2022-12-16T03:35:13;100892.96;;;-1.19;89.71
47811;BME280;33575;52.600;7.318;2022-12-16T03:37:40;100896.97;;;-1.17;89.24
47811;BME280;33575;52.600;7.318;2022-12-16T03:40:11;100898.96;;;-1.12;89.51
47811;BME280;33575;52.600;7.318;2022-12-16T03:42:41;100902.64;;;-1.06;89.56
47811;BME280;33575;52.600;7.318;2022-12-16T03:45:14;100908.03;;;-1.01;89.24
47811;BME280;33575;52.600;7.318;2022-12-16T03:47:47;100907.33;;;-0.96;89.65
47811;BME280;33575;52.600;7.318;2022-12-16T03:50:13;100908.08;;;-0.91;90.10
47811;BME280;33575;52.600;7.318;2022-12-16T03:52:43;100910.75;;;-0.81;90.26
47811;BME280;33575;52.600;7.318;2022-12-16T03:55:14;100910.43;;;-0.71;99.65
47811;BME280;33575;52.600;7.318;2022-12-16T03:57:44;100911.60;;;-0.58;94.17
47811;BME280;33575;52.600;7.318;2022-12-16T04:00:15;100911.82;;;-0.65;90.64
47811;BME280;33575;52.600;7.318;2022-12-16T04:02:45;100916.94;;;-0.84;88.67
47811;BME280;33575;52.600;7.318;2022-12-16T04:05:16;100919.37;;;-1.01;86.33
47811;BME280;33575;52.600;7.318;2022-12-16T04:07:46;100921.71;;;-1.27;86.36
47811;BME280;33575;52.600;7.318;2022-12-16T04:10:16;100924.10;;;-1.48;87.74
47811;BME280;33575;52.600;7.318;2022-12-16T04:12:47;100926.18;;;-1.51;88.47
47811;BME280;33575;52.600;7.318;2022-12-16T04:15:18;100924.31;;;-1.52;89.44
47811;BME280;33575;52.600;7.318;2022-12-16T04:17:48;100920.27;;;-1.53;89.76
47811;BME280;33575;52.600;7.318;2022-12-16T04:20:19;100924.22;;;-1.56;89.57
47811;BME280;33575;52.600;7.318;2022-12-16T04:22:49;100927.60;;;-1.64;88.99
47811;BME280;33575;52.600;7.318;2022-12-16T04:25:23;100931.27;;;-1.63;89.95
47811;BME280;33575;52.600;7.318;2022-12-16T04:27:51;100933.11;;;-1.53;90.32
47811;BME280;33575;52.600;7.318;2022-12-16T04:30:21;100935.50;;;-1.43;90.23
47811;BME280;33575;52.600;7.318;2022-12-16T04:32:54;100935.89;;;-1.34;90.15
47811;BME280;33575;52.600;7.318;2022-12-16T04:35:22;100933.50;;;-1.30;89.70
47811;BME280;33575;52.600;7.318;2022-12-16T04:37:52;100929.58;;;-1.28;90.12
47811;BME280;33575;52.600;7.318;2022-12-16T04:40:22;100932.93;;;-1.24;90.13
47811;BME280;33575;52.600;7.318;2022-12-16T04:42:53;100932.01;;;-1.22;90.05
47811;BME280;33575;52.600;7.318;2022-12-16T04:45:23;100928.43;;;-1.22;89.96
47811;BME280;33575;52.600;7.318;2022-12-16T04:47:58;100929.45;;;-1.24;90.12
47811;BME280;33575;52.600;7.318;2022-12-16T04:50:24;100935.69;;;-1.26;90.19
47811;BME280;33575;52.600;7.318;2022-12-16T04:52:55;100936.29;;;-1.27;90.25
47811;BME280;33575;52.600;7.318;2022-12-16T04:55:25;100937.80;;;-1.28;90.48
47811;BME280;33575;52.600;7.318;2022-12-16T04:57:57;100936.94;;;-1.26;90.42
47811;BME280;33575;52.600;7.318;2022-12-16T05:00:26;100941.08;;;-1.23;90.54
47811;BME280;33575;52.600;7.318;2022-12-16T05:02:57;100940.18;;;-1.12;91.19
47811;BME280;33575;52.600;7.318;2022-12-16T05:05:27;100939.33;;;-0.98;91.20
47811;BME280;33575;52.600;7.318;2022-12-16T05:07:57;100942.73;;;-0.77;97.50
47811;BME280;33575;52.600;7.318;2022-12-16T05:10:28;100944.54;;;-0.73;92.92
47811;BME280;33575;52.600;7.318;2022-12-16T05:12:58;100949.51;;;-0.81;90.38
47811;BME280;33575;52.600;7.318;2022-12-16T05:15:28;100953.37;;;-0.93;88.10
47811;BME280;33575;52.600;7.318;2022-12-16T05:18:07;100951.35;;;-1.10;89.11
47811;BME280;33575;52.600;7.318;2022-12-16T05:20:30;100951.64;;;-1.17;89.40
47811;BME280;33575;52.600;7.318;2022-12-16T05:23:01;100953.52;;;-1.26;89.16
47811;BME280;33575;52.600;7.318;2022-12-16T05:25:31;100958.78;;;-1.32;89.76
47811;BME280;33575;52.600;7.318;2022-12-16T05:28:02;100962.38;;;-1.37;89.73
47811;BME280;33575;52.600;7.318;2022-12-16T05:30:34;100965.99;;;-1.41;89.89
47811;BME280;33575;52.600;7.318;2022-12-16T05:33:02;100969.23;;;-1.42;90.04
47811;BME280;33575;52.600;7.318;2022-12-16T05:35:32;100972.44;;;-1.40;90.28
47811;BME280;33575;52.600;7.318;2022-12-16T05:38:02;100976.05;;;-1.36;90.55
47811;BME280;33575;52.600;7.318;2022-12-16T05:40:33;100977.03;;;-1.35;90.43
47811;BME280;33575;52.600;7.318;2022-12-16T05:43:04;100977.24;;;-1.38;90.36
47811;BME280;33575;52.600;7.318;2022-12-16T05:45:34;100981.21;;;-1.43;90.69
47811;BME280;33575;52.600;7.318;2022-12-16T05:48:05;100981.64;;;-1.47;90.72
47811;BME280;33575;52.600;7.318;2022-12-16T05:50:35;100984.63;;;-1.48;90.82
47811;BME280;33575;52.600;7.318;2022-12-16T05:53:05;100989.54;;;-1.47;90.78
47811;BME280;33575;52.600;7.318;2022-12-16T05:55:36;100994.39;;;-1.44;90.80
47811;BME280;33575;52.600;7.318;2022-12-16T05:58:07;100994.18;;;-1.43;90.63
47811;BME280;33575;52.600;7.318;2022-12-16T06:00:37;100994.12;;;-1.40;90.73
47811;BME280;33575;52.600;7.318;2022-12-16T06:03:07;100995.40;;;-1.39;90.67
47811;BME280;33575;52.600;7.318;2022-12-16T06:05:38;100997.79;;;-1.34;90.54
47811;BME280;33575;52.600;7.318;2022-12-16T06:08:09;100998.78;;;-1.29;91.02
47811;BME280;33575;52.600;7.318;2022-12-16T06:10:39;101003.12;;;-1.22;91.18
47811;BME280;33575;52.600;7.318;2022-12-16T06:13:10;101010.07;;;-1.06;98.94
47811;BME280;33575;52.600;7.318;2022-12-16T06:15:40;101010.81;;;-1.02;93.86
47811;BME280;33575;52.600;7.318;2022-12-16T06:18:11;101009.25;;;-1.09;92.22
47811;BME280;33575;52.600;7.318;2022-12-16T06:20:42;101010.64;;;-1.28;91.48
47811;BME280;33575;52.600;7.318;2022-12-16T06:23:12;101016.54;;;-1.41;90.91
47811;BME280;33575;52.600;7.318;2022-12-16T06:25:43;101021.81;;;-1.57;91.12
47811;BME280;33575;52.600;7.318;2022-12-16T06:28:14;101020.83;;;-1.65;91.15
47811;BME280;33575;52.600;7.318;2022-12-16T06:30:44;101026.12;;;-1.68;91.45
47811;BME280;33575;52.600;7.318;2022-12-16T06:33:14;101021.44;;;-1.74;91.71
47811;BME280;33575;52.600;7.318;2022-12-16T06:35:45;101025.09;;;-1.75;91.95
47811;BME280;33575;52.600;7.318;2022-12-16T06:38:15;101022.58;;;-1.74;91.67
47811;BME280;33575;52.600;7.318;2022-12-16T06:40:46;101027.58;;;-1.76;92.11
47811;BME280;33575;52.600;7.318;2022-12-16T06:43:16;101028.91;;;-1.71;92.07
47811;BME280;33575;52.600;7.318;2022-12-16T06:45:46;101033.08;;;-1.66;92.19
47811;BME280;33575;52.600;7.318;2022-12-16T06:48:16;101034.03;;;-1.64;92.33
47811;BME280;33575;52.600;7.318;2022-12-16T06:50:47;101037.77;;;-1.59;92.21
47811;BME280;33575;52.600;7.318;2022-12-16T06:53:17;101043.72;;;-1.49;92.09
47811;BME280;33575;52.600;7.318;2022-12-16T06:55:48;101047.47;;;-1.42;91.47
47811;BME280;33575;52.600;7.318;2022-12-16T06:58:19;101049.26;;;-1.36;91.16
47811;BME280;33575;52.600;7.318;2022-12-16T07:00:50;101053.14;;;-1.28;91.09
47811;BME280;33575;52.600;7.318;2022-12-16T07:03:20;101056.12;;;-1.22;91.00
47811;BME280;33575;52.600;7.318;2022-12-16T07:05:52;101067.06;;;-1.15;90.44
47811;BME280;33575;52.600;7.318;2022-12-16T07:08:21;101069.18;;;-1.09;90.85
47811;BME280;33575;52.600;7.318;2022-12-16T07:10:51;101070.01;;;-1.01;90.80
47811;BME280;33575;52.600;7.318;2022-12-16T07:13:22;101076.40;;;-0.97;91.09
47811;BME280;33575;52.600;7.318;2022-12-16T07:15:52;101083.71;;;-0.88;91.14
47811;BME280;33575;52.600;7.318;2022-12-16T07:18:22;101089.80;;;-0.75;97.22
47811;BME280;33575;52.600;7.318;2022-12-16T07:20:55;101091.60;;;-0.72;93.25
47811;BME280;33575;52.600;7.318;2022-12-16T07:23:24;101092.43;;;-0.84;91.80
47811;BME280;33575;52.600;7.318;2022-12-16T07:25:55;101100.36;;;-0.98;90.36
47811;BME280;33575;52.600;7.318;2022-12-16T07:28:25;101108.77;;;-1.06;90.27
47811;BME280;33575;52.600;7.318;2022-12-16T07:30:56;101110.99;;;-1.12;90.17
47811;BME280;33575;52.600;7.318;2022-12-16T07:33:26;101116.60;;;-1.17;90.60
47811;BME280;33575;52.600;7.318;2022-12-16T07:35:57;101126.42;;;-1.20;90.59
47811;BME280;33575;52.600;7.318;2022-12-16T07:38:27;101130.34;;;-1.22;90.34
47811;BME280;33575;52.600;7.318;2022-12-16T07:40:58;101137.76;;;-1.24;90.66
47811;BME280;33575;52.600;7.318;2022-12-16T07:43:29;101142.88;;;-1.25;90.80
47811;BME280;33575;52.600;7.318;2022-12-16T07:45:59;101147.73;;;-1.24;90.91
47811;BME280;33575;52.600;7.318;2022-12-16T07:48:29;101145.92;;;-1.23;91.16
47811;BME280;33575;52.600;7.318;2022-12-16T07:51:00;101143.65;;;-1.21;91.14
47811;BME280;33575;52.600;7.318;2022-12-16T07:53:32;101152.79;;;-1.18;91.03
47811;BME280;33575;52.600;7.318;2022-12-16T07:56:01;101160.04;;;-1.17;91.08
47811;BME280;33575;52.600;7.318;2022-12-16T07:58:32;101164.99;;;-1.14;90.96
47811;BME280;33575;52.600;7.318;2022-12-16T08:01:07;101166.72;;;-1.11;90.96
47811;BME280;33575;52.600;7.318;2022-12-16T08:03:34;101165.37;;;-1.11;90.96
47811;BME280;33575;52.600;7.318;2022-12-16T08:06:04;101169.87;;;-1.05;90.87
47811;BME280;33575;52.600;7.318;2022-12-16T08:08:34;101174.46;;;-1.03;90.70
47811;BME280;33575;52.600;7.318;2022-12-16T08:11:04;101178.58;;;-1.05;90.79
47811;BME280;33575;52.600;7.318;2022-12-16T08:13:36;101181.44;;;-1.05;90.83
47811;BME280;33575;52.600;7.318;2022-12-16T08:16:06;101182.91;;;-1.01;90.62
47811;BME280;33575;52.600;7.318;2022-12-16T08:18:36;101193.29;;;-0.95;90.65
47811;BME280;33575;52.600;7.318;2022-12-16T08:21:06;101196.01;;;-0.90;90.47
47811;BME280;33575;52.600;7.318;2022-12-16T08:23:37;101197.52;;;-0.81;90.92
47811;BME280;33575;52.600;7.318;2022-12-16T08:26:07;101202.35;;;-0.71;90.97
47811;BME280;33575;52.600;7.318;2022-12-16T08:28:37;101207.12;;;-0.58;99.25
47811;BME280;33575;52.600;7.318;2022-12-16T08:31:08;101209.32;;;-0.48;93.69
47811;BME280;33575;52.600;7.318;2022-12-16T08:33:39;101208.98;;;-0.55;90.37
47811;BME280;33575;52.600;7.318;2022-12-16T08:36:09;101216.28;;;-0.74;89.96
47811;BME280;33575;52.600;7.318;2022-12-16T08:38:39;101218.51;;;-0.88;89.76
47811;BME280;33575;52.600;7.318;2022-12-16T08:41:09;101222.30;;;-0.99;89.22
47811;BME280;33575;52.600;7.318;2022-12-16T08:43:40;101231.17;;;-1.03;89.83
47811;BME280;33575;52.600;7.318;2022-12-16T08:46:10;101236.93;;;-1.05;89.80
47811;BME280;33575;52.600;7.318;2022-12-16T08:48:40;101243.27;;;-1.06;90.06
47811;BME280;33575;52.600;7.318;2022-12-16T08:51:11;101246.96;;;-1.07;90.29
47811;BME280;33575;52.600;7.318;2022-12-16T08:53:41;101253.79;;;-1.10;90.31
47811;BME280;33575;52.600;7.318;2022-12-16T08:56:13;101258.34;;;-1.12;90.60
47811;BME280;33575;52.600;7.318;2022-12-16T08:58:43;101263.14;;;-1.08;90.75
47811;BME280;33575;52.600;7.318;2022-12-16T09:01:13;101261.64;;;-1.02;90.59
47811;BME280;33575;52.600;7.318;2022-12-16T09:03:44;101265.88;;;-0.99;90.27
47811;BME280;33575;52.600;7.318;2022-12-16T09:06:14;101265.34;;;-0.96;90.35
47811;BME280;33575;52.600;7.318;2022-12-16T09:08:45;101263.02;;;-0.92;90.29
47811;BME280;33575;52.600;7.318;2022-12-16T09:11:15;101266.10;;;-0.90;90.06
47811;BME280;33575;52.600;7.318;2022-12-16T09:13:46;101270.62;;;-0.93;90.09
47811;BME280;33575;52.600;7.318;2022-12-16T09:16:20;101276.97;;;-0.94;90.11
47811;BME280;33575;52.600;7.318;2022-12-16T09:18:47;101282.67;;;-0.94;89.92
47811;BME280;33575;52.600;7.318;2022-12-16T09:21:17;101282.79;;;-0.94;89.64
47811;BME280;33575;52.600;7.318;2022-12-16T09:23:47;101283.74;;;-0.94;89.78
47811;BME280;33575;52.600;7.318;2022-12-16T09:26:18;101283.47;;;-0.95;89.88
47811;BME280;33575;52.600;7.318;2022-12-16T09:28:49;101287.63;;;-0.93;90.11
47811;BME280;33575;52.600;7.318;2022-12-16T09:31:20;101290.60;;;-0.85;90.08
47811;BME280;33575;52.600;7.318;2022-12-16T09:33:50;101297.03;;;-0.71;90.41
47811;BME280;33575;52.600;7.318;2022-12-16T09:36:21;101296.63;;;-0.58;90.35
47811;BME280;33575;52.600;7.318;2022-12-16T09:38:52;101298.71;;;-0.39;97.62
47811;BME280;33575;52.600;7.318;2022-12-16T09:41:31;101299.13;;;-0.34;92.56
47811;BME280;33575;52.600;7.318;2022-12-16T09:44:00;101308.21;;;-0.44;90.06
47811;BME280;33575;52.600;7.318;2022-12-16T09:46:27;101316.81;;;-0.58;89.77
47811;BME280;33575;52.600;7.318;2022-12-16T09:48:59;101323.95;;;-0.70;89.20
47811;BME280;33575;52.600;7.318;2022-12-16T09:51:25;101322.81;;;-0.80;89.27
47811;BME280;33575;52.600;7.318;2022-12-16T09:53:55;101325.11;;;-0.84;89.51
47811;BME280;33575;52.600;7.318;2022-12-16T09:56:29;101327.73;;;-0.85;89.63
47811;BME280;33575;52.600;7.318;2022-12-16T09:58:58;101332.48;;;-0.86;89.77
47811;BME280;33575;52.600;7.318;2022-12-16T10:01:34;101334.45;;;-0.89;89.88
47811;BME280;33575;52.600;7.318;2022-12-16T10:03:57;101340.68;;;-0.89;89.74
47811;BME280;33575;52.600;7.318;2022-12-16T10:06:34;101339.90;;;-0.89;90.13
47811;BME280;33575;52.600;7.318;2022-12-16T10:09:03;101339.09;;;-0.86;90.13
47811;BME280;33575;52.600;7.318;2022-12-16T10:11:37;101343.61;;;-0.79;90.45
47811;BME280;33575;52.600;7.318;2022-12-16T10:14:03;101348.51;;;-0.72;90.32
47811;BME280;33575;52.600;7.318;2022-12-16T10:16:36;101347.73;;;-0.66;90.00
47811;BME280;33575;52.600;7.318;2022-12-16T10:19:04;101346.78;;;-0.66;89.94
47811;BME280;33575;52.600;7.318;2022-12-16T10:21:34;101348.50;;;-0.65;90.21
47811;BME280;33575;52.600;7.318;2022-12-16T10:24:05;101350.92;;;-0.61;90.09
47811;BME280;33575;52.600;7.318;2022-12-16T10:26:38;101354.28;;;-0.60;90.06
47811;BME280;33575;52.600;7.318;2022-12-16T10:29:09;101359.45;;;-0.57;89.91
47811;BME280;33575;52.600;7.318;2022-12-16T10:31:34;101362.87;;;-0.59;89.98
47811;BME280;33575;52.600;7.318;2022-12-16T10:34:09;101364.18;;;-0.59;89.89
47811;BME280;33575;52.600;7.318;2022-12-16T10:36:34;101364.18;;;-0.62;89.65
47811;BME280;33575;52.600;7.318;2022-12-16T10:39:11;101366.48;;;-0.61;89.57
47811;BME280;33575;52.600;7.318;2022-12-16T10:41:36;101367.21;;;-0.63;89.55
47811;BME280;33575;52.600;7.318;2022-12-16T10:44:12;101368.94;;;-0.60;89.46
47811;BME280;33575;52.600;7.318;2022-12-16T10:46:35;101367.23;;;-0.56;89.61
47811;BME280;33575;52.600;7.318;2022-12-16T10:49:07;101371.02;;;-0.50;90.06
47811;BME280;33575;52.600;7.318;2022-12-16T10:51:36;101375.06;;;-0.43;90.27
47811;BME280;33575;52.600;7.318;2022-12-16T10:54:21;101371.68;;;-0.33;90.19
47811;BME280;33575;52.600;7.318;2022-12-16T10:56:48;101371.87;;;-0.18;95.13
47811;BME280;33575;52.600;7.318;2022-12-16T10:59:09;101374.35;;;-0.28;91.77
47811;BME280;33575;52.600;7.318;2022-12-16T11:01:39;101377.32;;;-0.40;90.48
47811;BME280;33575;52.600;7.318;2022-12-16T11:06:40;101372.54;;;-0.72;89.33
47811;BME280;33575;52.600;7.318;2022-12-16T11:09:19;101374.94;;;-0.78;89.90
47811;BME280;33575;52.600;7.318;2022-12-16T11:11:40;101381.16;;;-0.86;89.74
47811;BME280;33575;52.600;7.318;2022-12-16T11:14:17;101385.06;;;-0.89;89.99
47811;BME280;33575;52.600;7.318;2022-12-16T11:16:41;101386.11;;;-0.90;89.83
47811;BME280;33575;52.600;7.318;2022-12-16T11:19:17;101385.61;;;-0.91;89.96
47811;BME280;33575;52.600;7.318;2022-12-16T11:21:42;101385.96;;;-0.92;90.52
47811;BME280;33575;52.600;7.318;2022-12-16T11:24:14;101383.53;;;-0.89;90.39
47811;BME280;33575;52.600;7.318;2022-12-16T11:26:51;101384.91;;;-0.82;90.26
47811;BME280;33575;52.600;7.318;2022-12-16T11:29:14;101379.99;;;-0.74;90.12
47811;BME280;33575;52.600;7.318;2022-12-16T11:31:43;101381.83;;;-0.65;90.06
47811;BME280;33575;52.600;7.318;2022-12-16T11:34:13;101381.99;;;-0.61;89.81
47811;BME280;33575;52.600;7.318;2022-12-16T11:36:44;101383.20;;;-0.65;89.93
47811;BME280;33575;52.600;7.318;2022-12-16T11:39:18;101381.32;;;-0.68;89.82
47811;BME280;33575;52.600;7.318;2022-12-16T11:41:46;101381.79;;;-0.65;90.11
47811;BME280;33575;52.600;7.318;2022-12-16T11:44:18;101384.72;;;-0.61;90.01
47811;BME280;33575;52.600;7.318;2022-12-16T11:46:46;101384.59;;;-0.55;89.99
47811;BME280;33575;52.600;7.318;2022-12-16T11:49:19;101391.86;;;-0.55;90.36
47811;BME280;33575;52.600;7.318;2022-12-16T11:51:53;101392.57;;;-0.46;90.42
47811;BME280;33575;52.600;7.318;2022-12-16T11:54:21;101390.54;;;-0.41;89.02
47811;BME280;33575;52.600;7.318;2022-12-16T11:56:48;101392.68;;;-0.39;89.68
47811;BME280;33575;52.600;7.318;2022-12-16T11:59:22;101397.34;;;-0.32;89.77
47811;BME280;33575;52.600;7.318;2022-12-16T12:01:51;101400.06;;;-0.26;89.66
47811;BME280;33575;52.600;7.318;2022-12-16T12:04:18;101400.23;;;-0.20;89.79
47811;BME280;33575;52.600;7.318;2022-12-16T12:07:01;101400.78;;;-0.16;89.98
47811;BME280;33575;52.600;7.318;2022-12-16T12:09:20;101399.49;;;-0.04;95.96
47811;BME280;33575;52.600;7.318;2022-12-16T12:11:51;101401.53;;;-0.05;92.12
47811;BME280;33575;52.600;7.318;2022-12-16T12:14:27;101400.77;;;-0.18;90.34
47811;BME280;33575;52.600;7.318;2022-12-16T12:16:59;101402.14;;;-0.31;89.52
47811;BME280;33575;52.600;7.318;2022-12-16T12:19:25;101401.23;;;-0.43;88.86
47811;BME280;33575;52.600;7.318;2022-12-16T12:21:53;101405.69;;;-0.53;89.28
47811;BME280;33575;52.600;7.318;2022-12-16T12:24:27;101407.54;;;-0.56;89.39
47811;BME280;33575;52.600;7.318;2022-12-16T12:27:02;101409.08;;;-0.61;89.88
47811;BME280;33575;52.600;7.318;2022-12-16T12:29:29;101411.59;;;-0.60;89.61
47811;BME280;33575;52.600;7.318;2022-12-16T12:31:59;101412.11;;;-0.61;89.49
47811;BME280;33575;52.600;7.318;2022-12-16T12:34:27;101416.22;;;-0.66;89.73
47811;BME280;33575;52.600;7.318;2022-12-16T12:36:58;101415.55;;;-0.66;89.84
47811;BME280;33575;52.600;7.318;2022-12-16T12:39:30;101412.80;;;-0.61;90.02
47811;BME280;33575;52.600;7.318;2022-12-16T12:42:09;101411.06;;;-0.52;89.90
47811;BME280;33575;52.600;7.318;2022-12-16T12:44:33;101415.89;;;-0.45;89.79
47811;BME280;33575;52.600;7.318;2022-12-16T12:46:57;101416.71;;;-0.41;89.78
47811;BME280;33575;52.600;7.318;2022-12-16T12:49:31;101415.42;;;-0.36;89.69
47811;BME280;33575;52.600;7.318;2022-12-16T12:52:02;101418.45;;;-0.36;89.52
47811;BME280;33575;52.600;7.318;2022-12-16T12:54:37;101417.78;;;-0.38;89.32
47811;BME280;33575;52.600;7.318;2022-12-16T12:56:59;101423.29;;;-0.40;89.45
47811;BME280;33575;52.600;7.318;2022-12-16T12:59:35;101426.91;;;-0.40;89.40
47811;BME280;33575;52.600;7.318;2022-12-16T13:02:02;101427.77;;;-0.34;89.48
47811;BME280;33575;52.600;7.318;2022-12-16T13:04:31;101425.33;;;-0.30;89.44
47811;BME280;33575;52.600;7.318;2022-12-16T13:07:01;101425.84;;;-0.24;89.48
47811;BME280;33575;52.600;7.318;2022-12-16T13:09:32;101427.87;;;-0.16;89.83
47811;BME280;33575;52.600;7.318;2022-12-16T13:17:03;101437.82;;;-0.02;91.47
47811;BME280;33575;52.600;7.318;2022-12-16T13:19:40;101440.15;;;-0.10;90.89